createdAt,value
2023-06-21T00:01:53.452Z,46.38
2023-06-21T00:04:20.935Z,46.16
2023-06-21T00:17:42.851Z,45.17
2023-06-21T00:20:11.860Z,45.60
2023-06-21T00:22:39.049Z,46.00
2023-06-21T00:25:07.055Z,46.07
2023-06-21T00:27:58.305Z,46.02
2023-06-21T00:31:21.625Z,46.17
2023-06-21T00:47:53.355Z,45.75
2023-06-21T00:50:20.075Z,45.63
2023-06-21T00:52:50.554Z,46.21
2023-06-21T00:55:20.346Z,46.44
2023-06-21T00:58:35.633Z,46.54
2023-06-21T01:01:38.895Z,46.18
2023-06-21T01:04:09.922Z,46.63
2023-06-21T01:06:50.554Z,47.25
2023-06-21T01:09:29.439Z,46.78
2023-06-21T01:12:26.424Z,46.59
2023-06-21T01:18:17.198Z,47.01
2023-06-21T01:20:50.088Z,46.53
2023-06-21T01:23:30.654Z,47.09
2023-06-21T01:26:58.980Z,46.86
2023-06-21T01:32:28.912Z,47.35
2023-06-21T01:34:57.142Z,47.60
2023-06-21T01:37:26.575Z,47.38
2023-06-21T01:39:55.765Z,47.49
2023-06-21T01:42:31.194Z,47.77
2023-06-21T02:22:32.394Z,48.19
2023-06-21T02:24:58.960Z,48.22
2023-06-21T02:27:25.539Z,48.12
2023-06-21T02:29:52.623Z,48.11
2023-06-21T02:32:19.278Z,48.57
2023-06-21T02:35:11.569Z,48.31
2023-06-21T02:38:15.619Z,47.95
2023-06-21T03:54:02.891Z,52.39
2023-06-21T03:56:29.467Z,52.41
2023-06-21T03:59:11.429Z,52.60
2023-06-21T04:01:38.227Z,52.42
2023-06-21T04:15:22.129Z,52.74
2023-06-21T04:17:50.538Z,52.61
2023-06-21T04:20:26.319Z,52.46
2023-06-21T04:22:53.070Z,52.53
2023-06-21T04:25:19.812Z,52.59
2023-06-21T04:27:49.531Z,52.59
2023-06-21T04:30:16.293Z,52.46
2023-06-21T04:32:47.098Z,52.43
2023-06-21T04:35:15.532Z,52.14
2023-06-21T04:37:46.364Z,51.93
2023-06-21T04:40:32.050Z,51.41
2023-06-21T05:09:44.671Z,49.13
2023-06-21T05:12:31.827Z,49.39
2023-06-21T05:15:09.157Z,49.48
2023-06-21T05:17:36.884Z,49.67
2023-06-21T05:20:05.455Z,50.77
2023-06-21T05:22:32.852Z,49.80
2023-06-21T05:25:01.819Z,49.69
2023-06-21T05:27:28.528Z,48.75
2023-06-21T05:30:15.065Z,48.47
2023-06-21T05:32:41.693Z,48.00
2023-06-21T05:35:08.835Z,47.68
2023-06-21T05:37:35.695Z,46.99
2023-06-21T05:40:52.219Z,46.90
2023-06-21T05:43:56.263Z,47.14
2023-06-21T06:00:48.268Z,45.73
2023-06-21T06:03:15.110Z,45.69
2023-06-21T06:05:41.843Z,45.87
2023-06-21T06:09:20.865Z,45.40
2023-06-21T06:12:48.316Z,45.89
2023-06-21T06:44:27.877Z,45.71
2023-06-21T06:46:54.731Z,45.33
2023-06-21T06:49:21.303Z,45.42
2023-06-21T06:51:47.976Z,44.94
2023-06-21T06:54:14.982Z,44.76
2023-06-21T06:56:41.584Z,44.43
2023-06-21T06:59:08.266Z,44.64
2023-06-21T07:01:34.867Z,44.17
2023-06-21T07:04:01.572Z,44.02
2023-06-21T07:06:28.233Z,44.04
2023-06-21T07:08:54.924Z,43.55
2023-06-21T07:11:21.585Z,42.63
2023-06-21T07:45:43.085Z,39.25
2023-06-21T07:48:09.776Z,39.51
2023-06-21T07:50:36.554Z,39.35
2023-06-21T07:53:03.310Z,39.24
2023-06-21T07:55:30.603Z,38.83
2023-06-21T07:57:57.422Z,38.77
2023-06-21T08:00:24.060Z,38.99
2023-06-21T08:02:52.790Z,39.86
2023-06-21T08:05:20.229Z,40.01
2023-06-21T08:07:47.359Z,39.72
2023-06-21T08:10:14.233Z,38.81
2023-06-21T08:12:41.169Z,39.83
2023-06-21T08:15:08.393Z,38.19
2023-06-21T08:17:35.183Z,39.56
2023-06-21T08:20:02.003Z,39.52
2023-06-21T08:22:28.677Z,38.60
2023-06-21T08:24:57.446Z,38.54
2023-06-21T08:27:48.239Z,39.35
2023-06-21T08:30:30.339Z,37.63
2023-06-21T08:32:57.005Z,38.32
2023-06-21T08:35:23.601Z,38.25
2023-06-21T08:38:27.418Z,37.72
2023-06-21T08:41:32.281Z,37.56
2023-06-21T08:44:33.265Z,38.43
2023-06-21T08:59:13.566Z,37.91
2023-06-21T09:01:54.104Z,37.20
2023-06-21T09:04:25.310Z,37.83
2023-06-21T09:06:53.138Z,39.15
2023-06-21T09:13:44.217Z,38.33
2023-06-21T09:29:20.305Z,38.71
2023-06-21T10:23:16.780Z,40.81
2023-06-21T10:25:47.282Z,41.06
2023-06-21T10:28:16.192Z,40.65
2023-06-21T10:30:45.597Z,39.68
2023-06-21T10:33:15.908Z,39.86
2023-06-21T10:35:46.630Z,39.88
2023-06-21T11:09:53.580Z,41.84
2023-06-21T11:12:20.207Z,41.82
2023-06-21T11:14:47.781Z,42.04
2023-06-21T11:17:16.051Z,42.21
2023-06-21T11:19:45.713Z,42.31
2023-06-21T11:22:30.732Z,42.44
2023-06-21T11:25:01.772Z,43.15
2023-06-21T11:27:28.852Z,43.11
2023-06-21T11:30:01.335Z,42.76
2023-06-21T11:33:13.281Z,42.46
2023-06-21T11:36:00.529Z,42.82
2023-06-21T11:38:31.005Z,43.79
2023-06-21T11:40:58.828Z,42.73
2023-06-21T11:43:25.516Z,42.37
2023-06-21T11:46:01.324Z,42.02
2023-06-21T11:48:29.204Z,42.42
2023-06-21T12:25:19.661Z,39.13
2023-06-21T12:27:58.260Z,38.50
2023-06-21T12:30:27.059Z,38.18
2023-06-21T12:32:54.006Z,37.61
2023-06-21T12:35:20.828Z,37.82
2023-06-21T12:38:10.478Z,39.04
2023-06-21T12:40:37.041Z,37.79
2023-06-21T12:43:03.637Z,36.91
2023-06-21T12:45:30.254Z,38.66
2023-06-21T12:49:06.684Z,37.23
2023-06-21T13:09:10.457Z,36.99
2023-06-21T13:11:38.042Z,37.42
2023-06-21T13:14:05.964Z,37.52
2023-06-21T13:21:05.820Z,36.56
2023-06-21T13:40:05.695Z,37.22
2023-06-21T13:42:32.573Z,36.99
2023-06-21T13:44:59.350Z,36.62
2023-06-21T14:07:11.525Z,35.63
2023-06-21T14:09:43.514Z,36.55
2023-06-21T14:12:10.545Z,35.68
2023-06-21T14:14:42.924Z,34.75
2023-06-21T14:18:04.531Z,36.00
2023-06-21T14:20:49.998Z,35.86
2023-06-21T14:23:16.645Z,35.29
2023-06-21T14:25:44.879Z,36.58
2023-06-21T14:28:11.552Z,37.05
2023-06-21T14:30:38.090Z,37.04
2023-06-21T14:33:08.386Z,36.49
2023-06-21T14:58:14.274Z,36.10
2023-06-21T15:00:40.853Z,34.38
2023-06-21T15:03:07.569Z,33.51
2023-06-21T15:05:34.202Z,33.96
2023-06-21T15:08:01.932Z,35.55
2023-06-21T16:03:03.849Z,36.46
2023-06-21T16:05:34.453Z,37.19
2023-06-21T16:08:04.597Z,37.42
2023-06-21T16:10:31.203Z,36.37
2023-06-21T16:12:58.663Z,36.71
2023-06-21T16:15:25.437Z,37.50
2023-06-21T16:17:52.352Z,37.87
2023-06-21T16:20:18.970Z,37.40
2023-06-21T16:22:45.530Z,37.25
2023-06-21T16:25:12.170Z,37.35
2023-06-21T16:27:38.775Z,37.43
2023-06-21T17:36:15.294Z,41.75
2023-06-21T17:38:41.823Z,41.53
2023-06-21T17:41:08.434Z,41.35
2023-06-21T17:48:04.637Z,43.06
2023-06-21T17:50:31.538Z,43.24
2023-06-21T17:52:58.239Z,43.48
2023-06-21T17:55:28.255Z,43.74
2023-06-21T17:58:13.896Z,43.90
2023-06-21T18:00:40.682Z,44.24
2023-06-21T18:05:49.428Z,44.82
2023-06-21T18:08:16.056Z,44.86
2023-06-21T18:10:42.731Z,44.94
2023-06-21T18:14:09.512Z,44.98
2023-06-21T18:21:03.183Z,45.94
2023-06-21T18:34:53.346Z,47.10
2023-06-21T18:37:19.934Z,47.01
2023-06-21T18:39:46.610Z,46.98
2023-06-21T18:43:15.453Z,46.99
2023-06-21T18:46:23.581Z,47.30
2023-06-21T18:48:53.179Z,47.55
2023-06-21T18:51:25.589Z,47.62
2023-06-21T18:53:53.759Z,47.69
2023-06-21T18:56:21.299Z,47.89
2023-06-21T18:58:50.263Z,48.09
2023-06-21T19:01:36.720Z,48.16
2023-06-21T19:04:03.948Z,48.10
2023-06-21T19:06:30.907Z,48.28
2023-06-21T19:08:57.490Z,48.29
2023-06-21T19:11:45.985Z,48.60
2023-06-21T19:14:40.665Z,48.72
2023-06-21T19:17:31.462Z,48.77
2023-06-21T19:19:58.159Z,49.16
2023-06-21T19:57:43.373Z,51.81
2023-06-21T20:00:11.328Z,54.28
2023-06-21T20:02:38.061Z,57.19
2023-06-21T20:05:05.487Z,59.33
2023-06-21T20:07:32.154Z,59.20
2023-06-21T20:09:58.844Z,59.88
2023-06-21T20:12:27.823Z,60.01
2023-06-21T20:14:54.451Z,60.90
2023-06-21T20:17:21.317Z,60.36
2023-06-21T20:19:47.919Z,60.27
2023-06-21T20:22:16.043Z,61.17
2023-06-21T20:24:43.019Z,63.00
2023-06-21T20:27:09.672Z,63.73
2023-06-21T20:29:36.274Z,64.10
2023-06-21T20:32:05.561Z,63.93
2023-06-21T20:34:32.226Z,63.74
2023-06-21T20:36:58.941Z,63.89
2023-06-21T20:39:25.664Z,64.13
2023-06-21T20:41:52.318Z,64.17
2023-06-21T20:44:19.171Z,64.24
2023-06-21T20:46:46.780Z,63.99
2023-06-21T20:49:17.409Z,62.98
2023-06-21T20:51:45.166Z,62.66
2023-06-21T21:08:55.370Z,62.09
2023-06-21T21:11:27.327Z,61.83
2023-06-21T21:14:01.460Z,63.88
2023-06-21T21:16:29.310Z,65.36
2023-06-21T21:18:56.620Z,66.92
2023-06-21T21:21:23.265Z,66.10
2023-06-21T21:23:51.639Z,64.72
2023-06-21T21:26:21.242Z,64.61
2023-06-21T21:28:47.851Z,64.74
2023-06-21T21:31:14.553Z,65.21
2023-06-21T21:33:42.013Z,65.56
2023-06-21T21:36:08.794Z,66.16
2023-06-21T21:38:35.531Z,65.54
2023-06-21T21:41:09.229Z,65.62
2023-06-21T21:43:38.846Z,64.56
2023-06-21T21:46:05.476Z,63.48
2023-06-21T21:48:32.112Z,63.22
2023-06-21T21:50:58.826Z,61.87
2023-06-21T21:53:25.385Z,61.33
2023-06-21T21:55:52.763Z,60.71
2023-06-21T21:58:19.424Z,60.47
2023-06-21T22:00:46.490Z,60.13
2023-06-21T22:03:13.520Z,59.58
2023-06-21T22:05:40.369Z,59.72
2023-06-21T22:08:06.939Z,59.40
2023-06-21T22:10:39.456Z,58.88
2023-06-21T22:13:10.720Z,59.23
2023-06-21T22:15:51.511Z,59.16
2023-06-21T22:18:26.520Z,59.19
2023-06-21T22:20:58.587Z,59.74
2023-06-21T22:23:33.484Z,59.47
2023-06-21T22:26:02.400Z,59.55
2023-06-21T22:28:29.055Z,59.88
2023-06-21T22:30:56.908Z,59.61
2023-06-21T22:33:27.054Z,59.56
2023-06-21T22:35:54.341Z,59.06
2023-06-21T22:38:21.347Z,58.90
2023-06-21T22:40:48.354Z,58.67
2023-06-21T22:43:16.812Z,58.62
2023-06-21T22:45:45.008Z,58.96
2023-06-21T22:48:14.613Z,58.40
2023-06-21T22:50:44.089Z,58.26
2023-06-21T22:53:11.288Z,57.82
2023-06-21T22:55:38.096Z,57.59
2023-06-21T22:58:05.503Z,57.57
2023-06-21T23:00:32.415Z,57.27
2023-06-21T23:02:59.354Z,57.27
2023-06-21T23:05:26.161Z,57.57
2023-06-21T23:07:52.769Z,57.91
2023-06-21T23:10:19.559Z,57.83
2023-06-21T23:12:48.239Z,57.86
2023-06-21T23:15:16.832Z,57.51
2023-06-21T23:17:44.103Z,57.29
2023-06-21T23:20:11.961Z,57.01
2023-06-21T23:22:43.432Z,57.16
2023-06-21T23:25:12.332Z,56.84
2023-06-21T23:27:43.561Z,57.01
2023-06-21T23:30:20.533Z,56.44
2023-06-21T23:32:57.404Z,56.21
2023-06-21T23:35:24.174Z,56.43
2023-06-21T23:37:55.097Z,56.56
2023-06-21T23:40:21.944Z,56.41
2023-06-21T23:42:53.015Z,56.65
2023-06-21T23:45:20.743Z,56.48
2023-06-21T23:47:47.833Z,57.00
2023-06-21T23:50:14.557Z,56.48
2023-06-21T23:52:41.163Z,56.31
2023-06-21T23:55:08.369Z,55.85
2023-06-21T23:57:35.124Z,55.34
